createdAt,value
2018-05-07T00:06:24.195Z,0.00
2018-05-07T00:06:55.190Z,0.00
2018-05-07T00:07:55.141Z,0.00
2018-05-07T00:08:55.268Z,0.00
2018-05-07T00:09:55.739Z,0.00
2018-05-07T00:10:55.299Z,0.00
2018-05-07T00:11:55.140Z,0.00
2018-05-07T00:12:55.105Z,0.00
2018-05-07T00:13:55.109Z,0.00
2018-05-07T00:14:55.081Z,0.00
2018-05-07T00:15:55.082Z,0.00
2018-05-07T00:16:55.107Z,0.00
2018-05-07T00:17:55.075Z,0.00
2018-05-07T00:18:55.047Z,0.00
2018-05-07T00:19:55.079Z,0.00
2018-05-07T00:20:55.072Z,0.00
2018-05-07T00:21:55.041Z,0.00
2018-05-07T00:22:55.114Z,0.00
2018-05-07T00:23:55.017Z,0.00
2018-05-07T00:24:55.020Z,0.00
2018-05-07T00:25:54.988Z,0.00
2018-05-07T00:26:54.988Z,0.00
2018-05-07T00:27:55.236Z,0.00
2018-05-07T00:28:54.963Z,0.00
2018-05-07T00:29:54.945Z,0.00
2018-05-07T00:30:54.948Z,0.00
2018-05-07T00:31:54.928Z,0.00
2018-05-07T00:32:55.160Z,0.00
2018-05-07T00:33:55.013Z,0.00
2018-05-07T00:34:55.036Z,0.00
2018-05-07T00:35:55.710Z,0.00
2018-05-07T00:36:54.940Z,0.00
2018-05-07T00:37:54.880Z,0.00
2018-05-07T00:38:54.936Z,0.00
2018-05-07T00:39:54.864Z,0.00
2018-05-07T00:40:54.876Z,0.00
2018-05-07T00:41:54.860Z,0.00
2018-05-07T00:42:56.191Z,0.00
2018-05-07T00:43:54.917Z,0.00
2018-05-07T00:44:54.817Z,0.00
2018-05-07T00:45:55.700Z,0.00
2018-05-07T00:46:54.864Z,0.00
2018-05-07T00:47:55.899Z,0.00
2018-05-07T00:48:55.662Z,0.00
2018-05-07T00:49:54.793Z,0.00
2018-05-07T00:50:54.779Z,0.00
2018-05-07T00:51:54.757Z,0.00
2018-05-07T00:52:55.061Z,0.00
2018-05-07T00:53:54.730Z,0.00
2018-05-07T00:54:54.774Z,0.00
2018-05-07T00:55:54.713Z,0.00
2018-05-07T00:56:54.702Z,0.00
2018-05-07T00:57:54.766Z,0.00
2018-05-07T00:58:54.782Z,0.00
2018-05-07T01:00:00.240Z,0.00
2018-05-07T01:00:56.757Z,0.00
2018-05-07T01:01:54.667Z,0.00
2018-05-07T01:02:54.702Z,0.00
2018-05-07T01:03:54.770Z,0.00
2018-05-07T01:04:55.169Z,0.00
2018-05-07T01:05:54.670Z,0.00
2018-05-07T01:06:54.635Z,0.00
2018-05-07T01:07:54.645Z,0.00
2018-05-07T01:08:54.585Z,0.00
2018-05-07T04:23:36.384Z,296.00
2018-05-07T04:24:31.328Z,304.00
2018-05-07T04:25:31.229Z,308.00
2018-05-07T04:26:31.222Z,316.00
2018-05-07T04:33:44.342Z,356.00
2018-05-07T04:34:44.249Z,360.00
2018-05-07T04:35:44.189Z,368.00
2018-05-07T04:36:44.541Z,372.00
2018-05-07T04:37:44.152Z,376.00
2018-05-07T04:38:44.132Z,384.00
2018-05-07T04:39:44.112Z,388.00
2018-05-07T04:40:44.207Z,396.00
2018-05-07T04:41:44.236Z,396.00
2018-05-07T04:42:44.091Z,404.00
2018-05-07T04:43:44.064Z,408.00
2018-05-07T04:44:44.069Z,416.00
2018-05-07T04:45:44.061Z,420.00
2018-05-07T04:46:44.043Z,424.00
2018-05-07T04:47:44.028Z,428.00
2018-05-07T04:48:44.077Z,432.00
2018-05-07T04:49:44.002Z,440.00
2018-05-07T04:50:44.006Z,444.00
2018-05-07T04:51:44.001Z,452.00
2018-05-07T04:52:43.975Z,456.00
2018-05-07T04:53:44.055Z,460.00
2018-05-07T04:54:43.954Z,464.00
2018-05-07T04:55:44.018Z,468.00
2018-05-07T04:56:43.935Z,476.00
2018-05-07T04:57:43.937Z,480.00
2018-05-07T04:58:43.923Z,484.00
2018-05-07T04:59:43.915Z,484.00
2018-05-07T05:00:43.896Z,488.00
2018-05-07T05:01:43.884Z,492.00
2018-05-07T05:02:43.864Z,500.00
2018-05-07T05:03:43.863Z,504.00
2018-05-07T05:04:43.868Z,508.00
2018-05-07T05:05:43.837Z,512.00
2018-05-07T05:06:43.830Z,516.00
2018-05-07T05:07:43.854Z,520.00
2018-05-07T05:08:43.882Z,528.00
2018-05-07T05:09:44.006Z,528.00
2018-05-07T05:10:43.794Z,532.00
2018-05-07T05:11:43.795Z,540.00
2018-05-07T05:12:43.771Z,544.00
2018-05-07T05:13:43.751Z,552.00
2018-05-07T05:14:43.747Z,552.00
2018-05-07T05:15:43.771Z,560.00
2018-05-07T05:16:43.731Z,564.00
2018-05-07T05:17:43.724Z,568.00
2018-05-07T05:18:43.703Z,572.00
2018-05-07T05:19:43.703Z,576.00
2018-05-07T05:20:43.717Z,580.00
2018-05-07T05:21:43.681Z,584.00
2018-05-07T05:22:43.697Z,588.00
2018-05-07T05:23:43.652Z,592.00
2018-05-07T05:24:43.655Z,596.00
2018-05-07T05:25:43.641Z,596.00
2018-05-07T05:26:43.634Z,596.00
2018-05-07T05:27:43.651Z,592.00
2018-05-07T05:28:43.604Z,596.00
2018-05-07T05:29:43.597Z,604.00
2018-05-07T05:30:43.589Z,600.00
2018-05-07T05:31:43.578Z,612.00
2018-05-07T05:32:43.603Z,612.00
2018-05-07T05:33:43.562Z,620.00
2018-05-07T05:34:43.552Z,624.00
2018-05-07T05:35:43.552Z,628.00
2018-05-07T05:36:43.537Z,632.00
2018-05-07T05:37:43.975Z,632.00
2018-05-07T05:38:43.508Z,640.00
2018-05-07T05:39:43.503Z,640.00
2018-05-07T05:40:43.484Z,648.00
2018-05-07T05:41:43.494Z,652.00
2018-05-07T05:42:43.475Z,656.00
2018-05-07T05:43:43.642Z,660.00
2018-05-07T05:44:43.460Z,664.00
2018-05-07T05:45:43.445Z,668.00
2018-05-07T05:46:43.442Z,672.00
2018-05-07T05:47:43.432Z,676.00
2018-05-07T05:48:43.417Z,676.00
2018-05-07T05:49:43.412Z,680.00
2018-05-07T05:50:43.392Z,680.00
2018-05-07T05:51:43.394Z,680.00
2018-05-07T05:52:43.382Z,684.00
2018-05-07T05:53:43.382Z,688.00
2018-05-07T05:54:43.391Z,688.00
2018-05-07T05:55:43.346Z,696.00
2018-05-07T05:56:43.343Z,700.00
2018-05-07T05:57:43.329Z,704.00
2018-05-07T05:58:43.332Z,712.00
2018-05-07T05:59:43.343Z,712.00
2018-05-07T06:00:43.317Z,720.00
2018-05-07T06:01:43.296Z,728.00
2018-05-07T06:02:43.300Z,740.00
2018-05-07T06:03:43.328Z,748.00
2018-05-07T06:04:43.303Z,760.00
2018-05-07T06:05:43.262Z,768.00
2018-05-07T06:06:43.249Z,772.00
2018-05-07T06:07:43.240Z,788.00
2018-05-07T06:08:43.224Z,800.00
2018-05-07T06:09:43.250Z,804.00
2018-05-07T06:10:43.209Z,812.00
2018-05-07T06:11:43.206Z,840.00
2018-05-07T06:12:43.221Z,844.00
2018-05-07T06:13:43.186Z,852.00
2018-05-07T06:14:43.334Z,852.00
2018-05-07T06:15:43.167Z,852.00
2018-05-07T06:16:43.190Z,848.00
2018-05-07T06:17:43.157Z,840.00
2018-05-07T06:18:43.146Z,848.00
2018-05-07T06:19:43.167Z,856.00
2018-05-07T06:20:43.126Z,852.00
2018-05-07T06:21:43.121Z,852.00
2018-05-07T06:22:43.115Z,848.00
2018-05-07T06:23:43.110Z,864.00
2018-05-07T06:24:43.114Z,872.00
2018-05-07T06:25:43.089Z,872.00
2018-05-07T06:26:43.224Z,872.00
2018-05-07T06:27:43.060Z,872.00
2018-05-07T06:28:43.061Z,872.00
2018-05-07T06:29:43.051Z,868.00
2018-05-07T06:30:43.040Z,872.00
2018-05-07T06:31:43.021Z,868.00
2018-05-07T06:32:43.157Z,864.00
2018-05-07T06:33:43.017Z,852.00
2018-05-07T06:34:43.014Z,856.00
2018-05-07T06:35:42.998Z,852.00
2018-05-07T06:36:42.988Z,852.00
2018-05-07T06:37:42.989Z,856.00
2018-05-07T06:38:42.980Z,860.00
2018-05-07T06:39:42.963Z,844.00
2018-05-07T06:40:42.950Z,824.00
2018-05-07T06:41:42.955Z,804.00
2018-05-07T06:42:42.939Z,808.00
2018-05-07T06:43:42.967Z,824.00
2018-05-07T06:44:42.920Z,856.00
2018-05-07T06:45:42.912Z,864.00
2018-05-07T06:46:42.897Z,868.00
2018-05-07T06:47:42.900Z,888.00
2018-05-07T06:48:42.912Z,900.00
2018-05-07T06:49:42.884Z,900.00
2018-05-07T06:50:42.879Z,904.00
2018-05-07T06:51:42.867Z,908.00
2018-05-07T06:52:42.853Z,908.00
2018-05-07T06:53:43.015Z,916.00
2018-05-07T06:54:42.837Z,912.00
2018-05-07T06:55:42.835Z,900.00
2018-05-07T06:56:42.822Z,884.00
2018-05-07T06:57:42.805Z,864.00
2018-05-07T06:58:42.808Z,880.00
2018-05-07T06:59:42.859Z,916.00
2018-05-07T07:00:42.791Z,940.00
2018-05-07T07:01:42.784Z,944.00
2018-05-07T07:02:42.875Z,944.00
2018-05-07T07:03:42.763Z,912.00
2018-05-07T07:04:42.756Z,888.00
2018-05-07T07:05:42.766Z,860.00
2018-05-07T07:06:42.744Z,848.00
2018-05-07T07:07:42.733Z,848.00
2018-05-07T07:08:42.812Z,852.00
2018-05-07T07:09:42.750Z,872.00
2018-05-07T07:10:42.743Z,904.00
2018-05-07T07:11:42.700Z,944.00
2018-05-07T07:12:42.695Z,980.00
2018-05-07T07:13:42.695Z,996.00
2018-05-07T07:14:42.688Z,996.00
2018-05-07T07:15:42.671Z,976.00
2018-05-07T07:16:42.661Z,980.00
2018-05-07T07:17:42.659Z,1000.00
2018-05-07T07:18:42.641Z,1000.00
2018-05-07T07:19:42.634Z,980.00
2018-05-07T07:20:42.659Z,952.00
2018-05-07T07:21:42.690Z,920.00
2018-05-07T07:22:42.622Z,908.00
2018-05-07T07:23:42.610Z,904.00
2018-05-07T07:24:42.603Z,916.00
2018-05-07T07:25:42.744Z,908.00
2018-05-07T07:26:42.583Z,916.00
2018-05-07T07:27:42.573Z,932.00
2018-05-07T07:28:42.573Z,936.00
2018-05-07T07:29:42.562Z,952.00
2018-05-07T07:30:42.553Z,968.00
2018-05-07T07:31:42.693Z,944.00
2018-05-07T07:32:42.546Z,952.00
2018-05-07T07:33:42.615Z,964.00
2018-05-07T07:34:42.521Z,976.00
2018-05-07T07:35:42.528Z,1000.00
2018-05-07T07:36:43.499Z,1024.00
2018-05-07T07:37:42.504Z,1036.00
2018-05-07T07:38:42.579Z,1000.00
2018-05-07T07:39:42.491Z,988.00
2018-05-07T07:40:42.488Z,1000.00
2018-05-07T07:41:42.479Z,1016.00
2018-05-07T07:42:42.467Z,1028.00
2018-05-07T07:43:42.466Z,1048.00
2018-05-07T07:44:42.451Z,1060.00
2018-05-07T07:45:42.440Z,1064.00
2018-05-07T07:46:42.427Z,1068.00
2018-05-07T07:47:42.434Z,1064.00
2018-05-07T07:48:42.414Z,1084.00
2018-05-07T07:49:42.493Z,1096.00
2018-05-07T07:50:42.406Z,1096.00
2018-05-07T07:51:42.391Z,1112.00
2018-05-07T07:52:42.383Z,1156.00
2018-05-07T07:53:42.421Z,1196.00
2018-05-07T07:54:42.375Z,1236.00
2018-05-07T07:55:42.560Z,1240.00
2018-05-07T07:56:42.369Z,1236.00
2018-05-07T07:57:42.355Z,1216.00
2018-05-07T07:58:42.340Z,1188.00
2018-05-07T07:59:42.332Z,1184.00
2018-05-07T08:00:42.563Z,1176.00
2018-05-07T08:01:42.379Z,1200.00
2018-05-07T08:02:42.328Z,1212.00
2018-05-07T08:03:42.322Z,1244.00
2018-05-07T08:04:42.304Z,1260.00
2018-05-07T08:05:42.326Z,1244.00
2018-05-07T08:06:42.289Z,1240.00
2018-05-07T08:07:42.315Z,1276.00
2018-05-07T08:08:42.281Z,1264.00
2018-05-07T08:09:42.263Z,1236.00
2018-05-07T08:10:42.260Z,1232.00
2018-05-07T08:11:42.264Z,1240.00
2018-05-07T08:12:42.282Z,1260.00
2018-05-07T08:13:42.236Z,1248.00
2018-05-07T08:14:42.242Z,1248.00
2018-05-07T08:15:42.235Z,1284.00
2018-05-07T08:16:42.237Z,1300.00
2018-05-07T08:17:42.252Z,1316.00
2018-05-07T08:18:42.207Z,1348.00
2018-05-07T08:19:42.205Z,1384.00
2018-05-07T08:20:42.201Z,1404.00
2018-05-07T08:21:42.193Z,1404.00
2018-05-07T08:22:42.213Z,1400.00
2018-05-07T08:23:42.181Z,1364.00
2018-05-07T08:24:42.211Z,1360.00
2018-05-07T08:25:42.180Z,1396.00
2018-05-07T08:26:42.160Z,1400.00
2018-05-07T08:27:43.101Z,1428.00
2018-05-07T08:28:42.145Z,1432.00
2018-05-07T08:29:42.180Z,1448.00
2018-05-07T08:30:42.200Z,1448.00
2018-05-07T08:31:42.134Z,1456.00
2018-05-07T08:32:42.123Z,1460.00
2018-05-07T08:33:42.112Z,1472.00
2018-05-07T08:34:42.109Z,1468.00
2018-05-07T08:35:42.101Z,1508.00
2018-05-07T08:36:42.132Z,1536.00
2018-05-07T08:37:42.086Z,1592.00
2018-05-07T08:38:42.077Z,1624.00
2018-05-07T08:39:42.069Z,1660.00
2018-05-07T08:40:42.070Z,1692.00
2018-05-07T08:41:42.068Z,1728.00
2018-05-07T08:42:42.063Z,1748.00
2018-05-07T08:43:42.039Z,1756.00
2018-05-07T08:44:42.051Z,1816.00
2018-05-07T08:45:42.037Z,1920.00
2018-05-07T08:46:42.051Z,1956.00
2018-05-07T08:47:42.028Z,1976.00
2018-05-07T08:48:42.021Z,1916.00
2018-05-07T08:49:42.014Z,1856.00
2018-05-07T08:50:42.016Z,1828.00
2018-05-07T08:51:42.134Z,1836.00
2018-05-07T08:52:42.084Z,1864.00
2018-05-07T08:53:41.997Z,1884.00
2018-05-07T08:54:41.992Z,2004.00
2018-05-07T08:55:41.987Z,2096.00
2018-05-07T08:56:41.980Z,2164.00
2018-05-07T08:57:42.024Z,2200.00
2018-05-07T08:58:41.970Z,2160.00
2018-05-07T08:59:41.970Z,2200.00
2018-05-07T09:00:41.965Z,2192.00
2018-05-07T09:01:41.949Z,2208.00
2018-05-07T09:02:42.570Z,2316.00
2018-05-07T09:03:41.950Z,2356.00
2018-05-07T09:04:41.948Z,2320.00
2018-05-07T09:05:41.936Z,2236.00
2018-05-07T09:06:41.934Z,2044.00
2018-05-07T09:07:41.921Z,2060.00
2018-05-07T09:08:42.086Z,2180.00
2018-05-07T09:09:41.910Z,2460.00
2018-05-07T09:10:41.919Z,2548.00
2018-05-07T09:11:41.903Z,2360.00
2018-05-07T09:12:41.912Z,2424.00
2018-05-07T09:13:41.935Z,2620.00
2018-05-07T09:14:41.931Z,2832.00
2018-05-07T09:15:41.910Z,2944.00
2018-05-07T09:16:41.892Z,3020.00
2018-05-07T09:17:41.887Z,3100.00
2018-05-07T09:18:41.886Z,3224.00
2018-05-07T09:19:41.912Z,3332.00
2018-05-07T09:20:41.885Z,3484.00
2018-05-07T09:21:41.864Z,3532.00
2018-05-07T09:22:41.874Z,3628.00
2018-05-07T09:23:41.877Z,3740.00
2018-05-07T09:24:41.915Z,3828.00
2018-05-07T09:25:41.861Z,3964.00
2018-05-07T09:26:41.876Z,4116.00
2018-05-07T09:27:41.867Z,4236.00
2018-05-07T09:28:41.850Z,4404.00
2018-05-07T09:29:41.899Z,4612.00
2018-05-07T09:30:41.863Z,4820.00
2018-05-07T09:31:41.858Z,5116.00
2018-05-07T09:32:41.842Z,5544.00
2018-05-07T09:33:41.857Z,6100.00
2018-05-07T09:34:41.852Z,6992.00
2018-05-07T09:35:41.883Z,8756.00
2018-05-07T09:36:41.836Z,24480.00
2018-05-07T09:37:41.873Z,56480.00
2018-05-07T09:38:41.850Z,75360.00
2018-05-07T09:39:41.854Z,87104.00
2018-05-07T09:40:41.852Z,90880.00
2018-05-07T09:41:41.847Z,70400.00
2018-05-07T09:42:41.899Z,64608.00
2018-05-07T09:43:41.856Z,72608.00
2018-05-07T09:44:41.851Z,90816.00
2018-05-07T09:45:41.847Z,105344.00
2018-05-07T09:46:41.855Z,104256.00
2018-05-07T09:47:41.868Z,94720.00
2018-05-07T09:48:41.870Z,94400.00
2018-05-07T09:49:42.126Z,86816.00
2018-05-07T09:50:41.847Z,84896.00
2018-05-07T09:51:41.861Z,93152.00
2018-05-07T09:52:41.861Z,95456.00
2018-05-07T09:53:41.868Z,86080.00
2018-05-07T09:54:41.865Z,73216.00
2018-05-07T09:55:41.874Z,71616.00
2018-05-07T09:56:41.867Z,76864.00
2018-05-07T09:57:41.858Z,80672.00
2018-05-07T09:58:41.891Z,82144.00
2018-05-07T09:59:41.863Z,83328.00
2018-05-07T10:00:41.914Z,83424.00
2018-05-07T10:01:41.878Z,85408.00
2018-05-07T10:02:41.920Z,84064.00
2018-05-07T10:03:41.887Z,78368.00
2018-05-07T10:04:41.887Z,81408.00
2018-05-07T10:05:41.885Z,84096.00
2018-05-07T10:06:41.894Z,79680.00
2018-05-07T10:07:41.908Z,77248.00
2018-05-07T10:08:41.908Z,76768.00
2018-05-07T10:09:41.897Z,76864.00
2018-05-07T10:10:41.919Z,72448.00
2018-05-07T10:11:41.925Z,74368.00
2018-05-07T10:12:42.005Z,92416.00
2018-05-07T10:13:41.923Z,96672.00
2018-05-07T10:14:41.939Z,96192.00
2018-05-07T10:15:41.926Z,100128.00
2018-05-07T10:16:41.940Z,100800.00
2018-05-07T10:17:41.951Z,94752.00
2018-05-07T10:18:42.014Z,90880.00
2018-05-07T10:19:41.963Z,88384.00
2018-05-07T10:20:41.969Z,89280.00
2018-05-07T10:21:41.972Z,98592.00
2018-05-07T10:22:41.964Z,107584.00
2018-05-07T10:23:41.977Z,98848.00
2018-05-07T10:24:41.988Z,98592.00
2018-05-07T10:25:42.000Z,100576.00
2018-05-07T10:26:41.997Z,103296.00
2018-05-07T10:27:41.998Z,103712.00
2018-05-07T10:28:42.018Z,90336.00
2018-05-07T10:29:42.032Z,55232.00
2018-05-07T10:30:42.030Z,59776.00
2018-05-07T10:31:42.045Z,31040.00
2018-05-07T10:32:42.045Z,21248.00
2018-05-07T10:33:42.051Z,80448.00
2018-05-07T10:34:42.076Z,11612.00
2018-05-07T10:35:42.070Z,12160.00
2018-05-07T10:36:42.063Z,31616.00
2018-05-07T10:37:42.073Z,18304.00
2018-05-07T10:38:42.085Z,10252.00
2018-05-07T10:39:42.178Z,64864.00
2018-05-07T10:40:42.088Z,25728.00
2018-05-07T10:41:42.175Z,26528.00
2018-05-07T10:42:42.170Z,25984.00
2018-05-07T10:43:42.118Z,2620.00
2018-05-07T10:44:42.125Z,2112.00
2018-05-07T10:45:42.131Z,3304.00
2018-05-07T10:46:42.128Z,2540.00
2018-05-07T10:47:42.165Z,5300.00
2018-05-07T10:48:42.137Z,8448.00
2018-05-07T10:49:42.155Z,2880.00
2018-05-07T10:50:42.138Z,2104.00
2018-05-07T10:51:42.155Z,2328.00
2018-05-07T10:52:42.148Z,5624.00
2018-05-07T10:53:42.186Z,2544.00
2018-05-07T10:54:42.162Z,1988.00
2018-05-07T10:55:42.157Z,2184.00
2018-05-07T10:56:42.154Z,12384.00
2018-05-07T10:57:42.227Z,2516.00
2018-05-07T10:58:42.164Z,5276.00
2018-05-07T10:59:42.173Z,2872.00
2018-05-07T11:00:42.178Z,1972.00
2018-05-07T11:01:42.262Z,2020.00
2018-05-07T11:02:42.171Z,7512.00
2018-05-07T11:03:42.210Z,2232.00
2018-05-07T11:04:42.176Z,2100.00
2018-05-07T11:05:42.168Z,2096.00
2018-05-07T11:06:42.162Z,5556.00
2018-05-07T11:07:42.164Z,3280.00
2018-05-07T11:08:42.175Z,14080.00
2018-05-07T11:09:42.211Z,2800.00
2018-05-07T11:10:42.182Z,2556.00
2018-05-07T11:11:42.172Z,3068.00
2018-05-07T11:12:42.180Z,5796.00
2018-05-07T11:13:42.166Z,9184.00
2018-05-07T11:14:42.242Z,8984.00
2018-05-07T11:15:42.164Z,13788.00
2018-05-07T11:16:42.167Z,16688.00
2018-05-07T11:17:42.161Z,21984.00
2018-05-07T11:18:42.165Z,6004.00
2018-05-07T11:19:42.203Z,38816.00
2018-05-07T11:20:42.244Z,53440.00
2018-05-07T11:21:42.158Z,12440.00
2018-05-07T11:22:42.162Z,7212.00
2018-05-07T11:23:42.165Z,7776.00
2018-05-07T11:24:42.162Z,7716.00
2018-05-07T11:25:42.243Z,23744.00
2018-05-07T11:26:42.164Z,21472.00
2018-05-07T11:27:42.163Z,35200.00
2018-05-07T11:28:42.153Z,56576.00
2018-05-07T11:29:42.189Z,84512.00
2018-05-07T11:30:42.217Z,85216.00
2018-05-07T11:31:42.151Z,103488.00
2018-05-07T11:32:42.139Z,109440.00
2018-05-07T11:33:42.144Z,115168.00
2018-05-07T11:34:42.144Z,112256.00
2018-05-07T11:35:42.689Z,95488.00
2018-05-07T11:36:42.230Z,92704.00
2018-05-07T11:37:42.193Z,100928.00
2018-05-07T11:38:42.153Z,101344.00
2018-05-07T11:39:42.156Z,94784.00
2018-05-07T11:40:42.165Z,97312.00
2018-05-07T11:41:42.176Z,99712.00
2018-05-07T11:42:42.197Z,101984.00
2018-05-07T11:43:42.169Z,101184.00
2018-05-07T11:44:42.177Z,100672.00
2018-05-07T11:45:42.319Z,114720.00
2018-05-07T11:46:42.189Z,118144.00
2018-05-07T11:47:42.211Z,105056.00
2018-05-07T11:48:42.190Z,97216.00
2018-05-07T11:49:42.199Z,105984.00
2018-05-07T11:50:42.207Z,109152.00
2018-05-07T11:51:42.248Z,109312.00
2018-05-07T11:52:42.216Z,110272.00
2018-05-07T11:53:42.223Z,112032.00
2018-05-07T11:54:42.243Z,105280.00
2018-05-07T11:55:42.276Z,95872.00
2018-05-07T11:56:42.629Z,102976.00
2018-05-07T11:57:42.250Z,102752.00
2018-05-07T11:58:42.320Z,50688.00
2018-05-07T11:59:42.261Z,100256.00
2018-05-07T12:00:42.291Z,87200.00
2018-05-07T12:01:42.287Z,5312.00
2018-05-07T12:02:42.391Z,77696.00
2018-05-07T12:03:42.302Z,23008.00
2018-05-07T12:04:42.300Z,33440.00
2018-05-07T12:05:42.323Z,15520.00
2018-05-07T12:06:42.322Z,6740.00
2018-05-07T12:07:42.394Z,2704.00
2018-05-07T12:08:42.332Z,21856.00
2018-05-07T12:09:42.343Z,2604.00
2018-05-07T12:10:42.345Z,8812.00
2018-05-07T12:11:42.367Z,2804.00
2018-05-07T12:12:42.365Z,2676.00
2018-05-07T12:13:42.385Z,2360.00
2018-05-07T12:14:42.377Z,2232.00
2018-05-07T12:15:42.446Z,2524.00
2018-05-07T12:16:42.389Z,2240.00
2018-05-07T12:17:42.390Z,2652.00
2018-05-07T12:18:42.420Z,2548.00
2018-05-07T12:19:42.547Z,2184.00
2018-05-07T12:20:42.412Z,2432.00
2018-05-07T12:21:42.417Z,2188.00
2018-05-07T12:22:42.409Z,2176.00
2018-05-07T12:23:42.419Z,2168.00
2018-05-07T12:24:42.414Z,5244.00
2018-05-07T12:25:42.423Z,2128.00
2018-05-07T12:26:42.433Z,17248.00
2018-05-07T12:27:42.418Z,2124.00
2018-05-07T12:28:42.434Z,22528.00
2018-05-07T12:29:42.456Z,35680.00
2018-05-07T12:30:42.423Z,4100.00
2018-05-07T12:31:42.650Z,2676.00
2018-05-07T12:32:42.441Z,2776.00
2018-05-07T12:33:42.427Z,2344.00
2018-05-07T12:34:42.511Z,2340.00
2018-05-07T12:35:42.427Z,2372.00
2018-05-07T12:36:42.442Z,3672.00
2018-05-07T12:37:42.470Z,2392.00
2018-05-07T12:38:42.442Z,2436.00
2018-05-07T12:39:42.454Z,2380.00
2018-05-07T12:40:42.461Z,7636.00
2018-05-07T12:41:42.445Z,2280.00
2018-05-07T12:42:42.454Z,3820.00
2018-05-07T12:43:42.445Z,4368.00
2018-05-07T12:44:42.441Z,2236.00
2018-05-07T12:45:42.517Z,2176.00
2018-05-07T12:46:43.756Z,2416.00
2018-05-07T12:47:42.437Z,2148.00
2018-05-07T12:48:42.449Z,2128.00
2018-05-07T12:49:42.444Z,2120.00
2018-05-07T12:50:42.449Z,2276.00
2018-05-07T12:51:42.472Z,2192.00
2018-05-07T12:52:42.484Z,2088.00
2018-05-07T12:53:42.441Z,2116.00
2018-05-07T12:54:42.433Z,2104.00
2018-05-07T12:55:43.232Z,2128.00
2018-05-07T12:56:42.467Z,2096.00
2018-05-07T12:57:42.431Z,2100.00
2018-05-07T12:58:42.439Z,2092.00
2018-05-07T12:59:42.444Z,1880.00
2018-05-07T13:00:42.444Z,2088.00
2018-05-07T13:01:42.775Z,2060.00
2018-05-07T13:02:42.448Z,2088.00
2018-05-07T13:03:42.448Z,2088.00
2018-05-07T13:04:42.428Z,2064.00
2018-05-07T13:05:42.433Z,2092.00
2018-05-07T13:06:42.435Z,2088.00
2018-05-07T13:07:42.447Z,2068.00
2018-05-07T13:08:42.446Z,2072.00
2018-05-07T13:09:42.432Z,2092.00
2018-05-07T13:10:42.430Z,2068.00
2018-05-07T13:11:42.447Z,2080.00
2018-05-07T13:12:42.420Z,2072.00
2018-05-07T13:13:42.453Z,2088.00
2018-05-07T13:14:42.463Z,2036.00
2018-05-07T13:15:42.448Z,2128.00
2018-05-07T13:16:42.415Z,2108.00
2018-05-07T13:17:42.420Z,2128.00
2018-05-07T13:18:42.420Z,2088.00
2018-05-07T13:19:42.443Z,2120.00
2018-05-07T13:20:42.425Z,2136.00
2018-05-07T13:21:42.779Z,2144.00
2018-05-07T13:22:42.409Z,2172.00
2018-05-07T13:23:42.408Z,2152.00
2018-05-07T13:24:43.288Z,2168.00
2018-05-07T13:25:42.405Z,2240.00
2018-05-07T13:26:42.406Z,10408.00
2018-05-07T13:27:42.405Z,13500.00
2018-05-07T13:28:42.390Z,2184.00
2018-05-07T13:29:42.396Z,2160.00
2018-05-07T13:30:42.540Z,2288.00
2018-05-07T13:31:42.396Z,2272.00
2018-05-07T13:32:42.390Z,2224.00
2018-05-07T13:33:42.391Z,2212.00
2018-05-07T13:34:42.389Z,2284.00
2018-05-07T13:35:42.393Z,2260.00
2018-05-07T13:36:42.431Z,2260.00
2018-05-07T13:37:42.397Z,7188.00
2018-05-07T13:38:42.374Z,4544.00
2018-05-07T13:39:42.375Z,6780.00
2018-05-07T13:40:42.378Z,2556.00
2018-05-07T13:41:42.413Z,2288.00
2018-05-07T13:42:42.372Z,2060.00
2018-05-07T13:43:42.373Z,2404.00
2018-05-07T13:44:42.372Z,3748.00
2018-05-07T13:45:42.369Z,2508.00
2018-05-07T13:46:42.405Z,7704.00
2018-05-07T13:47:42.370Z,2444.00
2018-05-07T13:48:42.408Z,3740.00
2018-05-07T13:49:42.359Z,3272.00
2018-05-07T13:50:42.364Z,4900.00
2018-05-07T13:51:42.355Z,2752.00
2018-05-07T13:52:42.925Z,2488.00
2018-05-07T13:53:42.622Z,2412.00
2018-05-07T13:54:42.358Z,2528.00
2018-05-07T13:55:42.361Z,2440.00
2018-05-07T13:56:42.347Z,2584.00
2018-05-07T13:57:42.355Z,13888.00
2018-05-07T13:58:42.355Z,16128.00
2018-05-07T13:59:42.431Z,22304.00
2018-05-07T14:00:42.347Z,4992.00
2018-05-07T14:01:42.338Z,4080.00
2018-05-07T14:02:42.383Z,4328.00
2018-05-07T14:03:42.349Z,5780.00
2018-05-07T14:04:42.362Z,18048.00
2018-05-07T14:05:42.398Z,19744.00
2018-05-07T14:06:42.349Z,16704.00
2018-05-07T14:07:42.465Z,17408.00
2018-05-07T14:08:42.345Z,12348.00
2018-05-07T14:09:42.334Z,15328.00
2018-05-07T14:10:42.331Z,44608.00
2018-05-07T14:11:42.345Z,13216.00
2018-05-07T14:12:42.632Z,14432.00
2018-05-07T14:13:42.333Z,12624.00
2018-05-07T14:14:42.343Z,23808.00
2018-05-07T14:15:42.361Z,45280.00
2018-05-07T14:16:42.462Z,56640.00
2018-05-07T14:17:42.327Z,26368.00
2018-05-07T14:18:42.336Z,20352.00
2018-05-07T14:19:42.363Z,3848.00
2018-05-07T14:20:42.336Z,6176.00
2018-05-07T14:21:42.340Z,2848.00
2018-05-07T14:22:42.372Z,2876.00
2018-05-07T14:23:42.331Z,2604.00
2018-05-07T14:24:42.321Z,2796.00
2018-05-07T14:25:42.487Z,2788.00
2018-05-07T14:26:42.317Z,3116.00
2018-05-07T14:27:42.333Z,9068.00
2018-05-07T14:28:42.331Z,5820.00
2018-05-07T14:29:42.345Z,10668.00
2018-05-07T14:30:42.327Z,5388.00
2018-05-07T14:31:42.360Z,4788.00
2018-05-07T14:32:43.278Z,5020.00
2018-05-07T14:33:42.314Z,4148.00
2018-05-07T14:34:42.328Z,6136.00
2018-05-07T14:35:42.332Z,9484.00
2018-05-07T14:36:42.305Z,10228.00
2018-05-07T14:37:42.332Z,6128.00
2018-05-07T14:38:42.381Z,4868.00
2018-05-07T14:39:42.322Z,6040.00
2018-05-07T14:40:42.318Z,14356.00
2018-05-07T14:41:42.322Z,25088.00
2018-05-07T14:42:42.366Z,38272.00
2018-05-07T14:43:42.316Z,21792.00
2018-05-07T14:44:42.311Z,19296.00
2018-05-07T14:45:42.314Z,39840.00
2018-05-07T14:46:42.309Z,50848.00
2018-05-07T14:47:42.307Z,37952.00
2018-05-07T14:48:42.313Z,23392.00
2018-05-07T14:49:42.313Z,35168.00
2018-05-07T14:50:42.316Z,65280.00
2018-05-07T14:51:42.316Z,55104.00
2018-05-07T14:52:42.441Z,26528.00
2018-05-07T14:53:42.354Z,59904.00
2018-05-07T14:54:42.319Z,7776.00
2018-05-07T14:55:42.356Z,6784.00
2018-05-07T14:56:42.326Z,4428.00
2018-05-07T14:57:42.323Z,6520.00
2018-05-07T14:58:42.398Z,3800.00
2018-05-07T14:59:42.322Z,6100.00
2018-05-07T15:00:42.317Z,12048.00
2018-05-07T15:01:42.323Z,19392.00
2018-05-07T15:02:42.341Z,35744.00
2018-05-07T15:03:42.321Z,60576.00
2018-05-07T15:04:42.336Z,64576.00
2018-05-07T15:05:42.332Z,65120.00
2018-05-07T15:06:42.329Z,71136.00
2018-05-07T15:07:42.329Z,63136.00
2018-05-07T15:08:42.365Z,32352.00
2018-05-07T15:09:42.339Z,16256.00
2018-05-07T15:10:42.343Z,8368.00
2018-05-07T15:11:42.349Z,3396.00
2018-05-07T15:12:42.352Z,3020.00
2018-05-07T15:13:42.351Z,4208.00
2018-05-07T15:14:42.349Z,9028.00
2018-05-07T15:15:42.362Z,17216.00
2018-05-07T15:16:42.350Z,13984.00
2018-05-07T15:17:42.384Z,2672.00
2018-05-07T15:18:42.361Z,2680.00
2018-05-07T15:19:42.493Z,2576.00
2018-05-07T15:20:42.365Z,2532.00
2018-05-07T15:21:42.358Z,2524.00
2018-05-07T15:22:42.354Z,2528.00
2018-05-07T15:23:42.354Z,2528.00
2018-05-07T15:24:42.364Z,2504.00
2018-05-07T15:25:42.364Z,2480.00
2018-05-07T15:26:44.437Z,2528.00
2018-05-07T15:27:42.363Z,3484.00
2018-05-07T15:28:42.363Z,3848.00
2018-05-07T15:29:42.402Z,2596.00
2018-05-07T15:30:42.369Z,2880.00
2018-05-07T15:31:42.379Z,2512.00
2018-05-07T15:32:43.316Z,2308.00
2018-05-07T15:33:42.364Z,2248.00
2018-05-07T15:34:42.374Z,2316.00
2018-05-07T15:35:42.458Z,2272.00
2018-05-07T15:36:42.371Z,2220.00